Time;durP1;ratioP1;P1;durP2;ratioP2;P2;SDS_P1;SDS_P2;PMS_P1;PMS_P2;Temp;Humidity;BMP_temperature;BMP_pressure;BME280_temperature;BME280_humidity;BME280_pressure;Samples;Min_cycle;Max_cycle;Signal;HPM_P1;HPM_P2
2022/10/17 00:02:24;;;;;;;;;18.00;18.00;;;;;16.92;43.35;100575.16;5048750;28;9028;-78
2022/10/17 00:04:52;;;;;;;;;21.80;17.80;;;;;17.02;43.58;100580.34;5032185;28;8879;-78
2022/10/17 00:07:21;;;;;;;;;21.40;18.00;;;;;17.04;43.09;100579.41;5016419;28;8878;-79
2022/10/17 00:09:51;;;;;;;;;17.20;17.00;;;;;17.10;43.09;100581.13;5033271;28;8843;-76
2022/10/17 00:12:20;;;;;;;;;22.00;20.00;;;;;17.06;42.78;100575.00;5064179;28;8855;-76
2022/10/17 00:14:48;;;;;;;;;20.20;19.00;;;;;17.13;42.72;100568.78;4997580;28;8909;-77
2022/10/17 00:17:17;;;;;;;;;21.20;19.60;;;;;17.20;42.48;100573.97;5027565;28;8977;-77
2022/10/17 00:19:45;;;;;;;;;18.40;17.20;;;;;17.31;42.39;100577.38;5031337;28;8905;-77
2022/10/17 00:22:14;;;;;;;;;17.60;16.40;;;;;17.34;42.30;100574.72;5022875;28;8883;-79
2022/10/17 00:24:42;;;;;;;;;22.20;19.60;;;;;17.32;42.07;100584.41;5034711;28;8873;-77
2022/10/17 00:27:12;;;;;;;;;9.20;8.60;;;;;17.31;42.23;100583.50;5011115;28;8859;-75
2022/10/17 00:29:41;;;;;;;;;20.20;19.40;;;;;17.25;42.03;100582.72;5027310;28;8867;-74
2022/10/17 00:32:10;;;;;;;;;19.80;16.00;;;;;17.21;41.99;100586.28;5031928;28;8877;-78
2022/10/17 00:34:38;;;;;;;;;17.40;16.80;;;;;17.20;42.09;100581.88;5030437;28;8886;-75
2022/10/17 00:37:07;;;;;;;;;18.40;17.00;;;;;17.30;42.24;100588.81;5022482;28;8879;-77
2022/10/17 00:39:36;;;;;;;;;20.40;20.40;;;;;17.13;42.50;100589.00;5028797;28;8965;-78
2022/10/17 00:42:04;;;;;;;;;20.40;18.00;;;;;17.20;41.83;100576.63;5027682;28;8891;-77
2022/10/17 00:45:00;;;;;;;;;21.80;19.40;;;;;17.19;42.30;100580.16;5028775;28;8848;-78
2022/10/17 00:47:29;;;;;;;;;19.00;16.00;;;;;17.17;41.89;100580.16;5030942;28;8865;-79
2022/10/17 00:49:59;;;;;;;;;22.40;20.60;;;;;17.13;42.42;100586.38;5034399;28;8868;-78
2022/10/17 00:52:33;;;;;;;;;19.00;17.20;;;;;17.21;41.91;100581.00;5008880;28;9021;-78
2022/10/17 00:55:11;;;;;;;;;19.80;16.20;;;;;17.29;41.92;100585.28;5028949;28;9610;-77
2022/10/17 00:57:41;;;;;;;;;17.20;16.00;;;;;17.30;41.93;100584.41;5028203;28;8899;-79
2022/10/17 01:00:14;;;;;;;;;17.60;17.00;;;;;17.23;42.04;100581.88;5028237;28;9688;-77
2022/10/17 01:02:43;;;;;;;;;19.20;19.20;;;;;17.24;41.89;100583.59;5020221;28;8866;-80
2022/10/17 01:05:12;;;;;;;;;17.40;16.40;;;;;17.22;41.90;100575.72;4982395;28;8870;-77
2022/10/17 01:07:44;;;;;;;;;20.00;19.40;;;;;17.23;42.22;100573.97;5029830;28;8866;-80
2022/10/17 01:10:14;;;;;;;;;20.20;18.20;;;;;17.22;41.93;100566.91;5046276;28;8908;-80
2022/10/17 01:12:55;;;;;;;;;18.20;17.80;;;;;17.30;42.21;100567.72;5045968;28;8892;-80
2022/10/17 01:15:38;;;;;;;;;17.20;16.80;;;;;17.24;42.08;100568.66;5029647;28;8857;-78
2022/10/17 01:18:19;;;;;;;;;19.00;17.00;;;;;17.27;42.36;100576.53;5028486;28;8896;-76
2022/10/17 01:21:16;;;;;;;;;20.20;18.40;;;;;17.32;41.79;100565.94;5029806;28;8847;-77
2022/10/17 01:23:54;;;;;;;;;18.20;18.20;;;;;17.24;42.12;100571.31;5045972;28;8854;-78
2022/10/17 01:26:27;;;;;;;;;17.20;16.80;;;;;17.13;42.33;100575.81;5030571;28;8881;-78
2022/10/17 01:29:21;;;;;;;;;18.80;17.00;;;;;17.17;42.28;100569.63;5030764;28;8870;-77
2022/10/17 01:31:59;;;;;;;;;18.20;18.20;;;;;17.15;42.50;100577.53;5029571;28;8913;-78
2022/10/17 01:34:34;;;;;;;;;20.00;18.60;;;;;17.03;42.58;100580.31;5030177;28;8869;-77
2022/10/17 01:37:13;;;;;;;;;19.00;17.20;;;;;17.03;42.30;100582.06;5047944;28;8983;-77
2022/10/17 01:39:46;;;;;;;;;18.40;16.40;;;;;17.12;42.40;100577.56;5030993;28;8864;-79
2022/10/17 01:42:22;;;;;;;;;17.00;16.20;;;;;17.12;42.43;100581.97;5030764;28;8996;-84
2022/10/17 01:44:58;;;;;;;;;21.60;18.20;;;;;17.09;42.28;100580.25;5029853;28;8891;-79
2022/10/17 01:47:32;;;;;;;;;19.00;19.00;;;;;17.07;42.31;100581.13;5030240;28;8861;-78
2022/10/17 01:50:07;;;;;;;;;21.20;19.60;;;;;17.05;42.86;100577.66;5030680;28;8886;-78
2022/10/17 01:52:42;;;;;;;;;17.20;15.40;;;;;16.96;42.85;100578.63;5012987;28;9027;-78
2022/10/17 01:55:16;;;;;;;;;17.80;17.80;;;;;16.95;42.98;100584.78;5016397;28;8864;-78
2022/10/17 01:57:50;;;;;;;;;15.80;15.80;;;;;16.90;43.17;100576.03;5044436;28;8859;-78
2022/10/17 02:00:22;;;;;;;;;16.00;16.00;;;;;16.68;43.22;100581.50;5040053;28;8872;-79
2022/10/17 02:02:58;;;;;;;;;22.80;20.60;;;;;16.68;43.87;100585.91;5034936;28;8860;-75
2022/10/17 02:05:32;;;;;;;;;18.80;18.20;;;;;16.52;44.06;100579.88;5047674;28;8956;-79
2022/10/17 02:08:01;;;;;;;;;23.00;20.20;;;;;16.69;43.55;100579.72;5012911;28;8884;-78
2022/10/17 02:10:36;;;;;;;;;24.00;20.40;;;;;16.65;43.52;100578.88;5046323;28;8993;-77
2022/10/17 02:13:15;;;;;;;;;15.60;15.60;;;;;16.71;43.75;100586.75;5029221;28;8861;-78
2022/10/17 02:15:59;;;;;;;;;20.80;18.20;;;;;16.77;43.22;100583.19;5012840;28;8871;-79
2022/10/17 02:18:53;;;;;;;;;24.00;21.60;;;;;16.73;43.43;100587.59;5045763;28;8871;-77
2022/10/17 02:21:31;;;;;;;;;19.40;17.60;;;;;16.74;43.76;100586.69;5030294;28;8863;-80
2022/10/17 02:24:07;;;;;;;;;19.60;16.80;;;;;16.71;43.73;100594.66;5030528;28;8855;-80
2022/10/17 02:26:43;;;;;;;;;19.40;18.20;;;;;16.77;43.38;100596.34;5045620;28;9594;-78
2022/10/17 02:29:17;;;;;;;;;22.00;20.00;;;;;16.78;43.43;100600.72;5012360;28;8859;-77
2022/10/17 02:31:50;;;;;;;;;17.60;17.20;;;;;16.81;43.17;100602.47;5029402;28;8847;-76
2022/10/17 02:34:26;;;;;;;;;19.40;19.20;;;;;16.82;43.56;100602.47;5031733;28;8855;-79
2022/10/17 02:36:59;;;;;;;;;17.80;16.80;;;;;16.75;43.68;100609.53;5029473;28;8848;-77
2022/10/17 02:39:30;;;;;;;;;21.80;20.40;;;;;16.61;43.73;100610.53;5015072;28;9590;-77
2022/10/17 02:42:04;;;;;;;;;12.80;12.80;;;;;16.59;44.20;100604.41;5014889;28;8879;-79
2022/10/17 02:44:34;;;;;;;;;21.00;19.80;;;;;16.47;44.18;100608.88;5028416;28;8960;-77
2022/10/17 02:47:09;;;;;;;;;13.20;12.00;;;;;16.52;43.75;100611.47;5029184;28;8875;-79
2022/10/17 02:49:44;;;;;;;;;19.20;17.80;;;;;16.45;44.47;100607.16;5031402;28;8848;-77
2022/10/17 02:52:21;;;;;;;;;18.60;18.20;;;;;16.49;43.94;100614.13;5014757;28;9685;-77
2022/10/17 02:54:54;;;;;;;;;22.60;22.60;;;;;16.45;44.51;100610.66;5028682;28;8855;-79
2022/10/17 02:57:31;;;;;;;;;18.60;18.40;;;;;16.43;44.42;100612.44;5028680;28;8879;-80
2022/10/17 03:00:03;;;;;;;;;20.80;18.80;;;;;16.50;44.55;100611.50;5044570;28;8866;-76
2022/10/17 03:02:40;;;;;;;;;18.60;17.80;;;;;16.52;44.56;100609.72;4995151;28;8867;-75
2022/10/17 03:05:13;;;;;;;;;19.60;18.80;;;;;16.39;44.82;100610.72;5042850;28;8979;-77
2022/10/17 03:07:42;;;;;;;;;19.60;17.80;;;;;16.45;44.34;100613.28;5012097;28;8871;-77
2022/10/17 03:10:11;;;;;;;;;19.60;19.00;;;;;16.38;44.56;100619.47;5047754;28;8848;-77
2022/10/17 03:12:40;;;;;;;;;17.80;17.20;;;;;16.43;44.38;100622.09;5032787;28;8883;-80
2022/10/17 03:15:11;;;;;;;;;20.60;19.80;;;;;16.43;44.43;100627.34;5030082;28;8839;-77
2022/10/17 03:17:41;;;;;;;;;21.40;19.20;;;;;16.45;44.32;100615.91;5046189;28;8856;-77
2022/10/17 03:20:12;;;;;;;;;19.40;18.80;;;;;16.45;44.40;100628.22;5044467;28;8863;-77
2022/10/17 03:22:40;;;;;;;;;14.20;13.00;;;;;16.43;44.30;100620.31;4994742;28;8840;-78
2022/10/17 03:25:10;;;;;;;;;21.80;20.20;;;;;16.47;44.54;100623.81;5027831;28;8856;-81
2022/10/17 03:27:39;;;;;;;;;19.40;19.40;;;;;16.51;44.33;100626.41;5044270;28;8867;-77
2022/10/17 03:30:10;;;;;;;;;20.00;19.20;;;;;16.37;44.47;100634.41;5010440;28;8875;-77
2022/10/17 03:32:39;;;;;;;;;21.80;20.00;;;;;16.33;44.46;100621.25;4995950;28;8863;-76
2022/10/17 03:35:08;;;;;;;;;23.20;21.00;;;;;16.32;44.69;100633.56;5044035;28;8878;-79
2022/10/17 03:37:47;;;;;;;;;22.20;20.40;;;;;16.40;44.80;100632.63;5011338;28;8863;-80
2022/10/17 03:40:17;;;;;;;;;13.00;12.00;;;;;16.24;45.08;100632.75;5027452;28;8855;-77
2022/10/17 03:42:45;;;;;;;;;21.60;21.20;;;;;16.23;45.10;100638.00;5045915;28;8867;-80
2022/10/17 03:45:15;;;;;;;;;19.80;16.80;;;;;16.29;44.67;100635.31;5043997;28;8882;-76
2022/10/17 03:47:45;;;;;;;;;20.40;19.20;;;;;16.33;45.06;100630.06;5027655;28;8941;-79
2022/10/17 03:50:14;;;;;;;;;22.00;19.60;;;;;16.43;44.53;100632.63;5043749;28;8890;-77
2022/10/17 03:52:48;;;;;;;;;20.40;20.40;;;;;16.33;44.74;100627.41;5029879;28;8851;-79
2022/10/17 03:55:17;;;;;;;;;22.20;21.20;;;;;16.33;45.02;100639.69;5016692;28;8883;-78
2022/10/17 03:57:46;;;;;;;;;54.75;43.25;;;;;16.32;44.85;100638.81;5051179;28;8862;-78
2022/10/17 04:00:17;;;;;;;;;36.00;32.25;;;;;16.29;44.70;100644.09;5011631;28;8869;-79
2022/10/17 04:02:53;;;;;;;;;30.75;27.00;;;;;16.25;45.07;100636.25;5044151;28;8867;-80
2022/10/17 04:05:23;;;;;;;;;69.00;55.33;;;;;16.19;45.09;100634.50;5027085;28;8848;-83
2022/10/17 04:07:53;;;;;;;;;23.00;22.20;;;;;16.16;44.97;100642.41;5012786;28;9260;-78
2022/10/17 04:10:30;;;;;;;;;22.80;21.80;;;;;16.16;45.26;100640.69;4996867;28;8893;-77
2022/10/17 04:12:59;;;;;;;;;21.40;17.40;;;;;16.15;45.32;100646.81;5028053;28;8945;-76
2022/10/17 04:15:28;;;;;;;;;19.20;18.40;;;;;15.96;46.14;100656.56;5028940;28;8863;-78
2022/10/17 04:17:56;;;;;;;;;26.60;24.00;;;;;15.89;45.64;100656.59;5012773;28;8881;-78
2022/10/17 04:20:25;;;;;;;;;21.00;21.00;;;;;16.05;45.27;100660.03;5028646;28;8902;-80
2022/10/17 04:22:55;;;;;;;;;23.00;21.60;;;;;15.92;45.71;100662.72;5029313;28;8859;-79
2022/10/17 04:25:24;;;;;;;;;32.00;29.75;;;;;15.85;45.97;100661.00;5026878;28;8875;-77
2022/10/17 04:27:52;;;;;;;;;25.40;23.20;;;;;15.93;45.76;100658.34;5045967;28;8910;-77
2022/10/17 04:30:21;;;;;;;;;22.40;20.20;;;;;15.93;45.94;100663.59;5045868;28;10518;-77
2022/10/17 04:32:51;;;;;;;;;22.00;21.80;;;;;16.01;45.55;100664.44;5030958;28;9612;-77
2022/10/17 04:35:22;;;;;;;;;19.80;18.80;;;;;15.86;46.12;100665.41;5051151;28;8938;-77
2022/10/17 04:37:59;;;;;;;;;23.40;21.40;;;;;15.81;45.86;100666.28;5011687;28;8895;-77
2022/10/17 04:40:28;;;;;;;;;23.20;22.40;;;;;15.76;46.13;100676.81;5037110;28;8881;-78
2022/10/17 04:42:57;;;;;;;;;40.75;32.50;;;;;15.78;46.09;100681.22;4998149;28;8882;-79
2022/10/17 04:45:33;;;;;;;;;29.50;28.25;;;;;15.69;46.33;100681.19;5028346;28;8866;-79
2022/10/17 04:48:04;;;;;;;;;18.80;17.80;;;;;15.49;47.15;100678.63;5045951;28;8992;-78
2022/10/17 04:50:33;;;;;;;;;23.80;23.20;;;;;15.54;46.85;100676.84;5019331;28;9031;-78
2022/10/17 04:53:34;;;;;;;;;24.20;22.80;;;;;15.60;46.69;100678.59;4970189;28;8852;-78
2022/10/17 04:56:09;;;;;;;;;20.80;18.80;;;;;15.72;46.34;100675.91;4967159;28;8880;-79
2022/10/17 04:58:39;;;;;;;;;21.40;21.40;;;;;15.67;46.25;100687.31;4951792;28;8880;-80
2022/10/17 05:01:10;;;;;;;;;24.60;23.60;;;;;15.65;46.29;100691.72;4944640;28;8964;-78
2022/10/17 05:03:41;;;;;;;;;23.40;22.80;;;;;15.62;46.29;100686.50;4944983;28;9035;-78
2022/10/17 05:06:12;;;;;;;;;12.80;12.80;;;;;15.60;46.20;100689.97;4943536;28;8866;-77
2022/10/17 05:08:45;;;;;;;;;20.00;19.00;;;;;15.72;45.95;100690.81;4897674;29;8959;-80
2022/10/17 05:11:19;;;;;;;;;22.20;19.00;;;;;15.74;45.97;100689.97;4913476;29;8911;-79
2022/10/17 05:13:51;;;;;;;;;24.00;20.60;;;;;15.73;45.97;100695.22;4885055;29;8877;-79
2022/10/17 05:16:21;;;;;;;;;21.60;20.20;;;;;15.74;45.87;100694.34;4906323;29;8920;-78
2022/10/17 05:18:51;;;;;;;;;23.60;23.40;;;;;15.92;45.38;100694.28;4875101;29;8878;-79
2022/10/17 05:21:23;;;;;;;;;24.60;23.40;;;;;15.79;45.87;100703.13;4915814;29;9615;-79
2022/10/17 05:23:55;;;;;;;;;20.60;20.20;;;;;15.90;45.33;100706.59;4927493;29;8868;-80
2022/10/17 05:26:25;;;;;;;;;23.20;21.80;;;;;15.91;45.53;100697.78;4913024;29;8869;-79
2022/10/17 05:28:54;;;;;;;;;25.60;24.40;;;;;16.07;44.97;100689.84;4935460;28;8904;-78
2022/10/17 05:31:25;;;;;;;;;17.80;15.40;;;;;16.07;45.06;100706.50;4936744;28;8877;-78
2022/10/17 05:33:54;;;;;;;;;23.80;22.80;;;;;16.27;44.61;100713.44;5025608;28;8895;-79
2022/10/17 05:36:23;;;;;;;;;23.75;23.25;;;;;16.38;44.18;100720.38;5027077;28;8856;-78
2022/10/17 05:38:53;;;;;;;;;19.60;19.00;;;;;16.47;44.01;100714.19;5030735;28;8928;-77
2022/10/17 05:41:23;;;;;;;;;22.80;22.00;;;;;16.42;43.95;100709.84;5046553;28;9614;-76
2022/10/17 05:43:51;;;;;;;;;25.00;23.40;;;;;16.49;44.25;100715.06;5024849;28;8929;-82
2022/10/17 05:46:29;;;;;;;;;24.20;24.20;;;;;16.57;43.73;100730.81;5043209;28;8867;-78
2022/10/17 05:48:58;;;;;;;;;24.20;20.40;;;;;16.66;43.79;100722.84;5041400;28;8955;-77
2022/10/17 05:51:26;;;;;;;;;26.20;23.80;;;;;16.76;43.63;100731.56;5062909;28;8857;-80
2022/10/17 05:53:58;;;;;;;;;22.60;22.60;;;;;16.80;43.22;100721.88;5046909;28;8872;-78
2022/10/17 05:56:28;;;;;;;;;25.00;24.60;;;;;16.75;43.53;100728.06;5031245;28;8855;-78
2022/10/17 05:58:57;;;;;;;;;23.40;23.40;;;;;16.73;43.49;100728.97;5027433;28;8993;-77
2022/10/17 06:01:49;;;;;;;;;27.20;25.20;;;;;16.64;43.78;100729.91;5043566;28;8888;-79
2022/10/17 06:04:18;;;;;;;;;23.60;21.60;;;;;16.81;43.49;100739.47;5041164;28;8904;-80
2022/10/17 06:06:47;;;;;;;;;12.40;9.40;;;;;16.88;43.73;100739.44;5011104;28;8881;-79
2022/10/17 06:09:17;;;;;;;;;22.20;22.20;;;;;16.95;43.41;100748.16;5059809;28;8892;-80
2022/10/17 06:11:48;;;;;;;;;25.60;21.60;;;;;17.03;43.05;100751.63;5026604;28;8862;-78
2022/10/17 06:14:17;;;;;;;;;21.80;21.00;;;;;17.08;42.75;100756.84;5045194;28;8870;-77
2022/10/17 06:16:48;;;;;;;;;23.20;23.20;;;;;17.19;42.63;100752.38;5011038;28;8931;-81
2022/10/17 06:19:17;;;;;;;;;22.20;20.00;;;;;17.14;42.59;100759.44;5057902;28;8975;-79
2022/10/17 06:21:47;;;;;;;;;27.50;25.25;;;;;17.20;43.11;100764.66;5060311;28;9739;-79
2022/10/17 06:24:22;;;;;;;;;22.00;19.80;;;;;17.40;42.52;100760.97;5042452;28;8845;-78
2022/10/17 06:26:53;;;;;;;;;22.80;21.80;;;;;17.46;42.45;100755.63;5010264;28;8969;-79
2022/10/17 06:29:22;;;;;;;;;24.20;24.20;;;;;17.48;42.35;100769.69;5011725;28;8873;-78
2022/10/17 06:31:52;;;;;;;;;20.60;20.60;;;;;17.51;42.40;100754.72;5045749;28;8853;-80
2022/10/17 06:34:21;;;;;;;;;29.40;24.20;;;;;17.60;42.09;100763.41;5027226;28;8860;-79
2022/10/17 06:36:50;;;;;;;;;21.00;19.40;;;;;17.68;42.07;100766.88;5028721;28;8870;-80
2022/10/17 06:39:19;;;;;;;;;21.40;20.80;;;;;17.61;41.68;100770.44;5031912;28;8853;-82
2022/10/17 06:42:05;;;;;;;;;23.20;21.40;;;;;17.66;41.98;100768.66;5033982;28;9028;-80
2022/10/17 06:44:56;;;;;;;;;28.00;25.60;;;;;17.62;41.84;100774.84;5048196;28;8845;-79
2022/10/17 06:47:54;;;;;;;;;22.80;22.40;;;;;17.54;42.09;100775.78;4993701;28;8945;-80
2022/10/17 06:50:43;;;;;;;;;22.60;19.80;;;;;17.63;42.02;100777.44;4993976;28;9790;-79
2022/10/17 06:53:24;;;;;;;;;23.40;23.00;;;;;17.66;41.90;100787.13;4992506;28;8878;-78
2022/10/17 06:56:11;;;;;;;;;21.20;19.60;;;;;17.75;41.94;100792.31;5004886;28;8846;-73
2022/10/17 06:59:08;;;;;;;;;23.60;23.00;;;;;17.80;42.19;100793.09;4989472;28;8846;-81
2022/10/17 07:01:39;;;;;;;;;23.00;22.80;;;;;17.83;41.72;100787.81;4957930;28;8866;-85
2022/10/17 07:04:13;;;;;;;;;24.60;23.60;;;;;17.98;41.49;100793.88;4989680;28;9024;-80
2022/10/17 07:06:42;;;;;;;;;22.20;20.40;;;;;18.05;41.48;100791.13;4973021;28;8932;-80
2022/10/17 07:09:16;;;;;;;;;19.40;18.40;;;;;18.02;41.21;100795.56;4974284;28;8850;-83
2022/10/17 07:11:45;;;;;;;;;19.20;19.20;;;;;18.01;41.35;100794.69;4979216;28;8937;-80
2022/10/17 07:14:19;;;;;;;;;22.60;18.40;;;;;18.14;41.22;100810.38;5008943;28;8856;-79
2022/10/17 07:16:49;;;;;;;;;21.00;18.25;;;;;18.20;40.60;100805.03;5005321;28;8851;-80
2022/10/17 07:19:24;;;;;;;;;24.80;22.40;;;;;18.26;40.68;100800.56;4992730;28;9585;-79
2022/10/17 07:21:53;;;;;;;;;25.40;22.80;;;;;18.26;40.59;100797.94;5008662;28;9011;-80
2022/10/17 07:24:22;;;;;;;;;25.25;24.25;;;;;18.26;40.83;100803.22;4987013;28;8878;-80
2022/10/17 07:26:56;;;;;;;;;18.20;18.20;;;;;18.32;40.43;100807.53;5001045;28;8932;-78
2022/10/17 07:29:27;;;;;;;;;28.00;22.75;;;;;18.48;40.46;100810.84;5015511;28;8865;-80
2022/10/17 07:32:07;;;;;;;;;24.80;21.80;;;;;18.51;40.48;100802.91;5031890;28;8934;-80
2022/10/17 07:34:36;;;;;;;;;21.75;19.25;;;;;18.61;40.11;100809.81;5033361;28;9011;-80
2022/10/17 07:37:08;;;;;;;;;23.60;21.60;;;;;18.62;40.47;100800.09;5039015;28;8853;-78
2022/10/17 07:39:39;;;;;;;;;23.50;20.75;;;;;18.82;39.88;100799.88;5041081;28;8856;-78
2022/10/17 07:42:10;;;;;;;;;19.20;18.60;;;;;18.92;40.24;100805.88;5040825;28;8881;-82
2022/10/17 07:44:41;;;;;;;;;24.40;22.40;;;;;19.00;39.86;100804.88;5063525;28;8873;-80
2022/10/17 07:47:10;;;;;;;;;21.60;20.80;;;;;18.95;39.16;100805.84;5036689;28;8862;-80
2022/10/17 07:49:41;;;;;;;;;20.80;19.20;;;;;19.09;39.22;100812.69;5027099;28;8981;-81
2022/10/17 07:52:10;;;;;;;;;17.80;16.80;;;;;19.03;38.88;100810.09;5036093;28;8978;-78
2022/10/17 07:54:39;;;;;;;;;22.20;20.20;;;;;19.04;38.90;100808.38;5036296;28;8862;-80
2022/10/17 07:57:08;;;;;;;;;19.00;18.00;;;;;19.33;39.14;100810.53;4964036;28;9013;-81
2022/10/17 07:59:38;;;;;;;;;18.40;18.40;;;;;19.41;38.41;100806.00;4977483;28;8858;-80
2022/10/17 08:02:14;;;;;;;;;19.40;19.20;;;;;19.59;38.14;100801.31;4989739;28;8857;-83
2022/10/17 08:04:42;;;;;;;;;19.00;18.20;;;;;19.47;38.05;100807.69;4984438;28;8903;-80
2022/10/17 08:07:12;;;;;;;;;20.80;20.60;;;;;19.61;37.82;100812.72;4989566;28;8921;-78
2022/10/17 08:09:50;;;;;;;;;21.20;18.20;;;;;19.62;37.84;100812.72;4985934;28;8877;-80
2022/10/17 08:12:19;;;;;;;;;20.40;18.80;;;;;19.81;37.51;100810.63;4971437;28;9009;-83
2022/10/17 08:14:48;;;;;;;;;21.00;19.60;;;;;19.91;37.64;100806.03;4988358;28;8874;-78
2022/10/17 08:17:19;;;;;;;;;19.80;19.00;;;;;19.89;36.93;100799.03;5049496;28;9587;-81
2022/10/17 08:19:48;;;;;;;;;20.20;18.00;;;;;19.75;36.99;100808.06;5031867;28;8968;-81
2022/10/17 08:22:16;;;;;;;;;20.00;18.60;;;;;19.91;37.00;100808.69;5032063;28;8997;-81
2022/10/17 08:24:46;;;;;;;;;19.60;19.40;;;;;19.89;36.79;100812.28;5048555;28;8869;-76
2022/10/17 08:27:20;;;;;;;;;20.00;18.40;;;;;19.88;37.06;100816.66;5049116;28;8845;-78
2022/10/17 08:29:51;;;;;;;;;18.80;18.40;;;;;19.98;36.62;100820.00;5031756;28;8865;-80
2022/10/17 08:32:23;;;;;;;;;19.00;18.40;;;;;20.11;36.25;100820.66;5049272;28;8999;-76
2022/10/17 08:34:52;;;;;;;;;20.20;19.40;;;;;20.18;36.02;100819.66;5047366;28;9042;-75
2022/10/17 08:37:21;;;;;;;;;22.20;18.80;;;;;20.15;35.70;100823.25;5049641;28;8865;-80
2022/10/17 08:39:49;;;;;;;;;19.60;18.00;;;;;20.23;36.00;100823.94;5047228;28;8877;-76
2022/10/17 08:42:34;;;;;;;;;20.40;18.20;;;;;20.41;35.81;100821.81;5045875;28;9015;-75
2022/10/17 08:45:13;;;;;;;;;17.40;17.40;;;;;20.40;35.90;100826.25;5052230;28;9034;-76
2022/10/17 08:47:47;;;;;;;;;17.20;17.20;;;;;20.32;36.03;100830.84;5046155;28;8915;-76
2022/10/17 08:50:30;;;;;;;;;20.00;20.00;;;;;20.62;35.69;100829.38;5043840;28;8861;-77
2022/10/17 08:53:05;;;;;;;;;18.60;16.80;;;;;20.68;35.65;100823.06;5025525;28;8863;-75
2022/10/17 08:55:38;;;;;;;;;16.80;16.80;;;;;20.73;35.42;100829.13;5042211;28;8867;-78
2022/10/17 08:58:14;;;;;;;;;18.20;16.60;;;;;20.78;35.36;100839.63;5025756;28;9665;-75
2022/10/17 09:00:49;;;;;;;;;19.00;18.00;;;;;20.87;35.25;100828.84;5045428;28;8857;-77
2022/10/17 09:03:32;;;;;;;;;15.80;15.60;;;;;21.22;35.30;100824.47;5028791;28;8849;-75
2022/10/17 09:06:15;;;;;;;;;17.80;17.00;;;;;21.18;34.28;100831.63;5045444;28;8911;-75
2022/10/17 09:08:53;;;;;;;;;19.00;18.20;;;;;21.16;34.44;100832.59;5029345;28;8865;-77
2022/10/17 09:11:40;;;;;;;;;20.00;19.40;;;;;21.34;34.16;100829.50;5029559;28;8875;-77
2022/10/17 09:14:28;;;;;;;;;20.80;18.80;;;;;21.53;34.19;100823.75;5047549;28;8885;-78
2022/10/17 09:17:11;;;;;;;;;17.80;17.80;;;;;21.55;34.09;100833.44;5048653;28;8849;-79
2022/10/17 09:19:48;;;;;;;;;21.40;21.00;;;;;21.57;34.47;100833.41;5030773;28;8864;-78
2022/10/17 09:22:23;;;;;;;;;20.80;20.80;;;;;21.73;34.53;100828.56;5031339;28;8848;-77
2022/10/17 09:24:57;;;;;;;;;18.40;18.00;;;;;21.90;34.61;100836.06;5047391;28;9634;-77
2022/10/17 09:27:33;;;;;;;;;23.60;20.00;;;;;21.92;34.30;100832.47;5047084;28;9013;-76
2022/10/17 09:30:20;;;;;;;;;18.00;17.40;;;;;22.15;33.97;100829.16;5046728;28;8877;-76
2022/10/17 09:33:12;;;;;;;;;20.60;19.60;;;;;22.20;33.93;100834.38;5046913;28;8845;-77
2022/10/17 09:36:04;;;;;;;;;20.60;19.80;;;;;22.25;33.62;100835.16;5046482;28;8845;-77
2022/10/17 09:38:40;;;;;;;;;20.25;20.00;;;;;22.39;33.66;100829.44;5046299;28;8856;-77
2022/10/17 09:41:17;;;;;;;;;17.40;17.40;;;;;22.45;33.38;100831.91;5029995;28;8915;-78
2022/10/17 09:44:25;;;;;;;;;15.40;14.60;;;;;22.37;32.36;100833.91;5029961;28;8967;-78
2022/10/17 09:47:15;;;;;;;;;17.80;16.80;;;;;22.39;32.01;100837.41;5047491;28;8881;-77
2022/10/17 09:49:46;;;;;;;;;11.80;10.00;;;;;22.22;31.68;100837.00;5047500;28;8857;-78
2022/10/17 09:52:18;;;;;;;;;18.75;18.75;;;;;22.25;32.44;100840.47;5028665;28;8864;-81
2022/10/17 09:54:50;;;;;;;;;17.60;16.40;;;;;21.96;33.13;100841.22;5048147;28;8861;-76
2022/10/17 09:57:20;;;;;;;;;22.20;21.80;;;;;22.25;31.99;100850.16;5047506;28;8975;-78
2022/10/17 09:59:58;;;;;;;;;21.80;18.80;;;;;22.30;31.62;100842.97;5046348;28;9621;-77
2022/10/17 10:02:28;;;;;;;;;16.40;16.40;;;;;22.35;31.70;100843.72;5025870;28;8855;-76
2022/10/17 10:05:00;;;;;;;;;18.40;17.40;;;;;22.36;31.37;100853.44;5044361;28;9587;-77
2022/10/17 10:07:37;;;;;;;;;18.40;17.60;;;;;22.50;31.38;100847.75;5046662;28;8884;-76
2022/10/17 10:10:22;;;;;;;;;18.00;18.00;;;;;22.62;31.38;100841.19;5030316;28;8869;-76
2022/10/17 10:13:04;;;;;;;;;17.00;14.60;;;;;22.74;30.69;100843.47;5048217;28;8882;-75
2022/10/17 10:15:36;;;;;;;;;17.80;17.60;;;;;22.69;31.37;100840.94;5047738;28;8864;-80
2022/10/17 10:18:29;;;;;;;;;19.40;18.00;;;;;22.80;31.33;100840.63;5062037;28;8861;-77
2022/10/17 10:21:07;;;;;;;;;15.00;15.00;;;;;22.95;31.26;100841.97;5053695;28;8896;-76
2022/10/17 10:23:39;;;;;;;;;22.60;19.80;;;;;22.98;31.45;100840.03;5045886;28;9610;-76
2022/10/17 10:26:22;;;;;;;;;16.60;15.80;;;;;23.14;30.98;100836.97;5037020;28;8852;-75
2022/10/17 10:28:58;;;;;;;;;11.60;10.20;;;;;23.16;31.05;100835.97;5057496;28;8849;-77
2022/10/17 10:31:31;;;;;;;;;16.00;16.00;;;;;23.13;30.21;100824.56;5024369;28;8829;-75
2022/10/17 10:34:03;;;;;;;;;19.20;18.00;;;;;23.15;30.25;100833.38;5043582;28;8894;-79
2022/10/17 10:36:55;;;;;;;;;16.60;15.20;;;;;23.30;30.20;100832.88;5031644;28;9004;-76
2022/10/17 10:39:34;;;;;;;;;15.80;15.80;;;;;23.45;30.15;100838.63;5030739;28;8894;-76
2022/10/17 10:42:07;;;;;;;;;16.60;15.80;;;;;23.39;29.62;100830.84;5028798;28;8876;-78
2022/10/17 10:44:40;;;;;;;;;17.00;15.80;;;;;23.39;30.16;100829.03;5029034;28;8865;-75
2022/10/17 10:47:20;;;;;;;;;18.00;16.80;;;;;23.55;29.99;100830.28;5029280;28;9870;-76
2022/10/17 10:49:52;;;;;;;;;15.60;15.20;;;;;23.64;29.97;100815.75;4995909;28;8895;-80
2022/10/17 10:52:37;;;;;;;;;13.40;13.40;;;;;23.65;29.73;100820.19;5013317;28;8853;-72
2022/10/17 10:55:18;;;;;;;;;18.60;18.00;;;;;23.88;29.37;100818.53;5016599;28;8881;-74
2022/10/17 10:57:49;;;;;;;;;16.40;15.60;;;;;23.84;29.76;100817.78;5026083;28;8895;-71
2022/10/17 11:00:23;;;;;;;;;16.40;16.00;;;;;23.99;29.67;100812.81;5027117;28;8873;-72
2022/10/17 11:02:59;;;;;;;;;19.80;19.00;;;;;24.09;29.96;100825.75;5027275;28;8861;-73
2022/10/17 11:05:45;;;;;;;;;14.80;14.40;;;;;24.38;28.99;100813.13;4959924;28;8905;-70
2022/10/17 11:08:22;;;;;;;;;17.80;14.80;;;;;24.46;28.80;100805.75;5016533;28;8944;-71
2022/10/17 11:11:07;;;;;;;;;15.20;14.60;;;;;24.58;28.07;100811.56;5027540;28;8856;-72
2022/10/17 11:13:43;;;;;;;;;15.00;15.00;;;;;24.74;28.43;100812.69;5027323;28;8865;-74
2022/10/17 11:16:27;;;;;;;;;17.20;17.20;;;;;24.90;28.25;100815.66;5030368;28;8892;-73
2022/10/17 11:19:03;;;;;;;;;21.20;20.20;;;;;24.99;27.91;100807.28;5048719;28;8873;-74
2022/10/17 11:21:41;;;;;;;;;15.40;15.40;;;;;24.81;28.42;100800.84;5047516;28;8954;-74
2022/10/17 11:24:21;;;;;;;;;17.00;15.00;;;;;25.00;27.81;100800.13;5015960;28;8899;-71
2022/10/17 11:26:56;;;;;;;;;18.60;16.20;;;;;25.13;27.82;100800.50;5049836;28;8948;-70
2022/10/17 11:29:28;;;;;;;;;17.80;17.60;;;;;25.21;27.73;100799.25;5046826;28;8973;-78
2022/10/17 11:32:01;;;;;;;;;16.40;15.60;;;;;25.47;26.81;100795.50;5050165;28;8853;-77
2022/10/17 11:34:35;;;;;;;;;15.00;15.00;;;;;25.59;26.71;100787.91;5048436;28;8872;-78
2022/10/17 11:37:09;;;;;;;;;18.60;18.20;;;;;25.64;27.04;100786.78;5032426;28;8876;-77
2022/10/17 11:39:47;;;;;;;;;16.00;15.20;;;;;25.71;27.17;100786.50;5050204;28;8856;-78
2022/10/17 11:42:23;;;;;;;;;18.80;18.60;;;;;25.71;27.32;100789.16;5048905;28;8977;-78
2022/10/17 11:44:59;;;;;;;;;19.20;17.20;;;;;25.84;27.27;100787.69;5050109;28;8857;-76
2022/10/17 11:47:34;;;;;;;;;18.00;16.40;;;;;25.76;25.35;100782.69;5035924;28;8841;-76
2022/10/17 11:50:07;;;;;;;;;13.40;13.00;;;;;25.74;25.69;100781.03;5000039;28;9575;-80